Terminal Aerodrome Forecast
Issued by NWS

Home | Current Version | Previous Version | Text Only | Print | Product List | Glossary On
Versions: 1 2 3 4 5 6 7 8 9 10 11 12 13
000
FTUS45 KABQ 050530
TAFGUP
TAF
KGUP 050530Z 0506/0606 22006KT P6SM SCT040 SCT100
     FM050800 VRB03KT P6SM BKN050
     FM051700 22012G18KT P6SM VCTS BKN060CB
     FM052300 22010KT P6SM SCT060
     FM060300 VRB03KT P6SM SCT060=

USA.gov is the U.S. government's official web portal to all federal, state and local government web resources and services.